Time;durP1;ratioP1;P1;durP2;ratioP2;P2;SDS_P1;SDS_P2;PMS_P1;PMS_P2;Temp;Humidity;BMP_temperature;BMP_pressure;BME280_temperature;BME280_humidity;BME280_pressure;Samples;Min_cycle;Max_cycle;Signal;HPM_P1;HPM_P2
2021/12/06 00:02:16;;;;;;;54.90;38.00;;;;;;;1.75;80.01;96249.46;108161;1271;70758;-69
2021/12/06 00:04:46;;;;;;;56.80;38.90;;;;;;;1.76;79.76;96248.86;108005;1272;68752;-69
2021/12/06 00:07:18;;;;;;;58.00;41.10;;;;;;;1.78;80.04;96248.45;107997;1275;68676;-69
2021/12/06 00:09:47;;;;;;;66.50;43.60;;;;;;;1.79;80.20;96245.98;108161;1272;59726;-67
2021/12/06 00:12:17;;;;;;;64.30;42.30;;;;;;;1.79;79.92;96246.30;108108;1270;59047;-69
2021/12/06 00:14:46;;;;;;;50.50;38.50;;;;;;;1.79;80.11;96246.63;108169;1272;71687;-68
2021/12/06 00:17:16;;;;;;;42.70;29.40;;;;;;;1.82;80.02;96249.61;108041;1272;68492;-68
2021/12/06 00:19:46;;;;;;;43.20;31.20;;;;;;;1.85;79.09;96247.70;108148;1272;68689;-68
2021/12/06 00:22:23;;;;;;;48.40;33.00;;;;;;;1.87;78.66;96246.38;108062;1271;59760;-68
2021/12/06 00:24:56;;;;;;;47.30;29.40;;;;;;;1.90;78.21;96248.82;108015;1274;59672;-67
2021/12/06 00:27:27;;;;;;;43.30;31.50;;;;;;;1.91;78.13;96253.04;108132;1272;71471;-68
2021/12/06 00:29:57;;;;;;;;;;;;;;;1.90;78.34;96251.38;108208;1271;68722;-68
2021/12/06 00:32:26;;;;;;;41.40;27.60;;;;;;;1.89;78.72;96248.83;108109;1272;69474;-68
2021/12/06 00:34:56;;;;;;;52.20;39.00;;;;;;;1.90;78.42;96242.93;108108;1272;59717;-68
2021/12/06 00:37:33;;;;;;;58.40;42.00;;;;;;;1.89;79.08;96245.73;108123;1272;60103;-68
2021/12/06 00:40:08;;;;;;;57.70;38.20;;;;;;;1.90;79.17;96245.52;108091;1272;72634;-68
2021/12/06 00:42:39;;;;;;;38.50;26.00;;;;;;;1.92;78.83;96246.59;107680;1271;624991;-68
2021/12/06 00:45:10;;;;;;;55.10;38.90;;;;;;;1.95;78.06;96243.36;108008;1272;69431;-69
2021/12/06 00:47:39;;;;;;;;;;;;;;;1.94;79.04;96246.66;108162;1272;59719;-68
2021/12/06 00:50:09;;;;;;;66.80;42.30;;;;;;;1.94;79.10;96244.27;108092;1268;59692;-70
2021/12/06 00:52:38;;;;;;;;;;;;;;;1.94;80.45;96241.20;108183;1272;71563;-68
2021/12/06 00:55:09;;;;;;;52.70;35.00;;;;;;;1.90;80.85;96243.11;107968;1271;68621;-68
2021/12/06 00:57:40;;;;;;;50.70;34.30;;;;;;;1.89;80.73;96244.38;108138;1272;69427;-69
2021/12/06 01:00:24;;;;;;;48.90;36.30;;;;;;;1.89;80.77;96241.25;108113;1271;59779;-69
2021/12/06 01:02:58;;;;;;;70.00;46.20;;;;;;;1.90;80.67;96242.97;108108;1272;59774;-68
2021/12/06 01:05:27;;;;;;;73.70;46.80;;;;;;;1.89;80.65;96240.41;108018;1272;70927;-68
2021/12/06 01:07:57;;;;;;;50.90;38.20;;;;;;;1.90;80.87;96240.21;108187;1272;68475;-68
2021/12/06 01:10:28;;;;;;;65.30;45.30;;;;;;;1.91;80.38;96241.69;108073;1271;69426;-68
2021/12/06 01:12:58;;;;;;;65.10;43.60;;;;;;;1.93;80.53;96239.84;108132;1272;59796;-67
2021/12/06 01:15:29;;;;;;;51.40;37.30;;;;;;;1.94;80.74;96239.45;108160;1272;59767;-68
2021/12/06 01:18:01;;;;;;;67.60;44.20;;;;;;;1.96;81.19;96235.05;108206;1272;71625;-68
2021/12/06 01:20:40;;;;;;;61.10;44.20;;;;;;;1.95;81.46;96236.29;108130;1274;68621;-68
2021/12/06 01:23:14;;;;;;;57.30;39.90;;;;;;;1.93;81.73;96229.89;108106;1271;69287;-70
2021/12/06 01:31:13;;;;;;;41.40;31.10;;;;;;;1.94;81.60;96223.48;108118;1272;71312;-69
2021/12/06 01:39:18;;;;;;;53.40;38.30;;;;;;;1.98;81.32;96222.20;108050;1272;59728;-66
2021/12/06 01:41:58;;;;;;;45.80;32.40;;;;;;;1.99;80.87;96209.60;108006;1272;59694;-67
2021/12/06 01:44:34;;;;;;;41.50;30.80;;;;;;;2.01;80.95;96206.19;107876;1272;70871;-70
2021/12/06 01:47:16;;;;;;;39.10;24.30;;;;;;;2.05;80.39;96207.37;108116;1272;68600;-67
2021/12/06 01:49:55;;;;;;;62.10;40.90;;;;;;;2.08;80.48;96192.23;108129;1272;69275;-72
2021/12/06 01:52:35;;;;;;;38.60;26.30;;;;;;;2.01;81.27;96191.42;108014;1272;59796;-68
2021/12/06 01:55:10;;;;;;;32.70;21.80;;;;;;;2.03;80.21;96190.11;108110;1271;59748;-68
2021/12/06 01:57:40;;;;;;;32.60;21.90;;;;;;;2.05;79.90;96190.88;108170;1272;71858;-68
2021/12/06 02:00:32;;;;;;;32.40;21.70;;;;;;;2.09;79.39;96187.05;108043;1272;68444;-67
2021/12/06 02:03:07;;;;;;;33.90;24.70;;;;;;;2.12;79.28;96184.80;108119;1271;68899;-67
2021/12/06 02:05:40;;;;;;;54.20;37.40;;;;;;;2.11;79.55;96182.30;108004;1272;59690;-67
2021/12/06 02:08:11;;;;;;;38.90;27.50;;;;;;;2.09;80.69;96182.08;107903;1275;59678;-69
2021/12/06 02:10:41;;;;;;;;;;;;;;;2.09;80.35;96183.64;108014;1272;70296;-68
2021/12/06 02:13:15;;;;;;;46.00;32.20;;;;;;;2.05;80.67;96184.33;107993;1271;68617;-67
2021/12/06 02:15:53;;;;;;;46.50;30.80;;;;;;;2.04;81.02;96180.10;108073;1271;68601;-67
2021/12/06 02:18:49;;;;;;;73.30;49.90;;;;;;;2.03;80.32;96182.77;108002;1272;59763;-68
2021/12/06 02:21:29;;;;;;;58.00;40.60;;;;;;;1.95;80.99;96178.19;108028;1272;59760;-67
2021/12/06 02:24:02;;;;;;;75.20;50.40;;;;;;;1.93;81.19;96176.93;107824;1275;71496;-68
2021/12/06 02:26:33;;;;;;;62.50;43.70;;;;;;;1.91;81.99;96175.17;108051;1273;67827;-68
2021/12/06 02:29:04;;;;;;;58.30;39.60;;;;;;;1.91;81.67;96178.28;108022;1274;68831;-69
2021/12/06 02:31:36;;;;;;;40.20;28.20;;;;;;;1.93;81.25;96176.62;108002;1272;59721;-69
2021/12/06 02:34:05;;;;;;;57.00;36.00;;;;;;;1.98;80.07;96176.49;107920;1275;59787;-68
2021/12/06 02:36:36;;;;;;;48.40;35.50;;;;;;;1.96;80.36;96171.13;107970;1272;70798;-68
2021/12/06 02:39:14;;;;;;;50.40;36.90;;;;;;;1.90;80.44;96169.39;108072;1272;68069;-68
2021/12/06 02:41:46;;;;;;;48.30;34.70;;;;;;;1.90;80.66;96166.83;108098;1271;69620;-66
2021/12/06 02:44:18;;;;;;;33.20;21.80;;;;;;;1.91;80.77;96160.77;107995;1272;59715;-69
2021/12/06 02:46:48;;;;;;;44.90;31.90;;;;;;;1.95;79.69;96162.80;107989;1272;59636;-67
2021/12/06 02:49:18;;;;;;;50.20;36.30;;;;;;;1.91;80.12;96164.36;108027;1272;71599;-69
2021/12/06 02:51:50;;;;;;;54.40;39.80;;;;;;;1.89;80.82;96163.94;107892;1274;68074;-68
2021/12/06 02:54:22;;;;;;;44.30;33.30;;;;;;;1.90;80.90;96158.95;107894;1271;69450;-68
2021/12/06 02:57:07;;;;;;;56.50;40.10;;;;;;;1.91;81.13;96153.52;108064;1272;59754;-68
2021/12/06 02:59:41;;;;;;;52.50;36.20;;;;;;;1.92;80.99;96143.83;108121;1272;59713;-67
2021/12/06 03:02:17;;;;;;;42.20;28.80;;;;;;;1.91;81.03;96141.70;108014;1272;71588;-69
2021/12/06 03:04:49;;;;;;;46.50;33.40;;;;;;;1.90;81.16;96142.10;108030;1270;67671;-67
2021/12/06 03:07:24;;;;;;;42.80;31.60;;;;;;;1.89;80.71;96141.83;108044;1272;69416;-67
2021/12/06 03:09:56;;;;;;;44.50;32.50;;;;;;;1.91;80.54;96140.17;107973;1272;59718;-67
2021/12/06 03:12:27;;;;;;;51.40;34.40;;;;;;;1.92;80.27;96136.66;108105;1271;59758;-67
2021/12/06 03:14:59;;;;;;;60.00;41.40;;;;;;;1.91;81.14;96129.27;108082;1272;71583;-68
2021/12/06 03:17:33;;;;;;;58.80;39.80;;;;;;;1.87;82.08;96136.94;107924;1275;67866;-69
2021/12/06 03:20:07;;;;;;;52.20;38.90;;;;;;;1.80;82.33;96139.58;107919;1271;68529;-68
2021/12/06 03:22:38;;;;;;;62.90;42.10;;;;;;;1.76;82.63;96136.20;108185;1271;59770;-67
2021/12/06 03:25:11;;;;;;;45.20;32.20;;;;;;;1.70;82.91;96138.77;107926;1274;59783;-68
2021/12/06 03:27:40;;;;;;;36.30;26.20;;;;;;;1.67;83.06;96139.14;108010;1272;69629;-68
2021/12/06 03:30:13;;;;;;;47.90;35.10;;;;;;;1.67;82.76;96134.80;107848;1272;67500;-67
2021/12/06 03:32:46;;;;;;;51.00;37.30;;;;;;;1.67;83.22;96138.97;108149;1271;68687;-68
2021/12/06 03:35:16;;;;;;;36.20;24.50;;;;;;;1.64;83.41;96137.92;108150;1272;60591;-67
2021/12/06 03:37:47;;;;;;;36.80;27.50;;;;;;;1.69;82.66;96139.73;108076;1272;59697;-67
2021/12/06 03:40:17;;;;;;;35.20;25.70;;;;;;;1.72;83.07;96138.17;108063;1272;71579;-67
2021/12/06 03:42:46;;;;;;;34.80;24.10;;;;;;;1.74;82.75;96136.48;108109;1272;68715;-67
2021/12/06 03:45:17;;;;;;;29.20;21.30;;;;;;;1.80;81.92;96138.92;108083;1272;69265;-70
2021/12/06 03:47:48;;;;;;;42.80;31.20;;;;;;;1.85;81.86;96143.06;107966;1272;59764;-68
2021/12/06 03:50:18;;;;;;;39.40;25.60;;;;;;;1.86;81.54;96149.91;107863;1275;59778;-68
2021/12/06 03:52:47;;;;;;;48.60;35.10;;;;;;;1.87;81.34;96148.78;108008;1272;71499;-69
2021/12/06 03:55:17;;;;;;;62.80;42.80;;;;;;;1.77;82.97;96160.72;108028;1272;67890;-69
2021/12/06 03:57:46;;;;;;;70.00;45.70;;;;;;;1.64;83.69;96164.38;108001;1272;69568;-68
2021/12/06 04:00:16;;;;;;;61.70;45.10;;;;;;;1.57;83.73;96158.06;108069;1271;59745;-68
2021/12/06 04:02:51;;;;;;;60.70;41.50;;;;;;;1.53;84.18;96157.13;108051;1271;59636;-69
2021/12/06 04:05:22;;;;;;;60.90;40.90;;;;;;;1.49;84.40;96155.11;107959;1271;70617;-69
2021/12/06 04:07:52;;;;;;;55.50;36.50;;;;;;;1.49;84.17;96162.16;108057;1272;68670;-68
2021/12/06 04:10:25;;;;;;;;;;;;;;;1.50;83.88;96162.08;107938;1272;69554;-68
2021/12/06 04:12:57;;;;;;;51.10;33.60;;;;;;;1.55;83.41;96161.11;108127;1271;59726;-67
2021/12/06 04:15:29;;;;;;;24.00;17.50;;;;;;;1.62;83.43;96167.80;107982;1272;59669;-68
2021/12/06 04:18:00;;;;;;;32.70;24.40;;;;;;;1.69;82.88;96173.38;108101;1271;71363;-68
2021/12/06 04:20:30;;;;;;;39.60;27.50;;;;;;;1.73;83.10;96182.41;108054;1272;68579;-67
2021/12/06 04:23:00;;;;;;;;;;;;;;;1.76;83.48;96185.69;108095;1272;69432;-69
2021/12/06 04:25:29;;;;;;;41.30;28.20;;;;;;;1.77;83.60;96189.93;107938;1274;59763;-69
2021/12/06 04:28:06;;;;;;;46.50;31.40;;;;;;;1.72;84.45;96184.72;108072;1274;59771;-68
2021/12/06 04:30:38;;;;;;;34.20;23.70;;;;;;;1.68;84.48;96181.64;108054;1272;70875;-69
2021/12/06 04:33:09;;;;;;;52.00;33.90;;;;;;;1.72;83.33;96183.51;108141;1272;67888;-69
2021/12/06 04:35:40;;;;;;;50.60;33.60;;;;;;;1.70;84.21;96183.78;108133;1272;69463;-69
2021/12/06 04:38:10;;;;;;;51.20;35.30;;;;;;;1.68;84.44;96184.23;108042;1270;59757;-69
2021/12/06 04:40:39;;;;;;;42.80;28.40;;;;;;;1.69;84.12;96186.24;107972;1272;59778;-69
2021/12/06 04:43:10;;;;;;;40.10;27.50;;;;;;;1.73;84.03;96188.43;108060;1272;71712;-69
2021/12/06 04:45:41;;;;;;;45.50;30.00;;;;;;;1.78;83.91;96189.36;108029;1272;67773;-69
2021/12/06 04:48:10;;;;;;;;;;;;;;;1.80;83.97;96186.65;108058;1272;67671;-69
2021/12/06 04:50:42;;;;;;;27.60;18.20;;;;;;;1.85;83.18;96192.55;108152;1272;59674;-68
2021/12/06 04:53:20;;;;;;;32.90;23.40;;;;;;;1.88;82.67;96197.38;108134;1272;59724;-68
2021/12/06 04:56:05;;;;;;;43.20;29.60;;;;;;;1.90;83.21;96193.80;108078;1272;72262;-69
2021/12/06 04:58:44;;;;;;;32.40;21.60;;;;;;;1.93;83.95;96197.58;108055;1271;68645;-69
2021/12/06 05:01:19;;;;;;;42.10;31.10;;;;;;;1.97;82.72;96203.16;108040;1272;69447;-68
2021/12/06 05:03:51;;;;;;;50.60;36.30;;;;;;;1.97;83.21;96211.41;107934;1271;59840;-69
2021/12/06 05:06:29;;;;;;;47.20;33.00;;;;;;;1.97;83.20;96212.13;108114;1271;59726;-67
2021/12/06 05:09:07;;;;;;;39.30;28.00;;;;;;;1.99;83.24;96213.55;108135;1272;71411;-67
2021/12/06 05:11:37;;;;;;;40.90;29.80;;;;;;;2.01;83.69;96210.85;107873;1274;68309;-68
2021/12/06 05:14:08;;;;;;;27.50;18.20;;;;;;;2.04;83.90;96211.88;108077;1270;68843;-67
2021/12/06 05:16:37;;;;;;;34.50;25.40;;;;;;;2.08;83.01;96210.98;108163;1272;59773;-67
2021/12/06 05:19:08;;;;;;;42.80;30.00;;;;;;;2.10;83.64;96209.86;108108;1271;59672;-67
2021/12/06 05:21:39;;;;;;;51.30;33.80;;;;;;;2.12;83.91;96210.24;108031;1270;71474;-68
2021/12/06 05:24:08;;;;;;;47.10;31.40;;;;;;;2.14;84.55;96207.55;108150;1272;68630;-67
2021/12/06 05:26:38;;;;;;;64.60;44.00;;;;;;;2.17;83.81;96203.91;108082;1272;68674;-67
2021/12/06 05:29:12;;;;;;;68.90;47.20;;;;;;;2.11;85.22;96200.70;108072;1272;59734;-69
2021/12/06 05:31:42;;;;;;;66.30;46.50;;;;;;;2.08;85.37;96205.13;108104;1271;59845;-67
2021/12/06 05:34:19;;;;;;;49.10;37.20;;;;;;;2.06;85.30;96210.95;108079;1272;71656;-66
2021/12/06 05:36:48;;;;;;;66.90;44.60;;;;;;;2.06;85.34;96205.08;108120;1271;68003;-68
2021/12/06 05:39:18;;;;;;;57.20;39.50;;;;;;;2.07;85.42;96205.70;108117;1272;68471;-68
2021/12/06 05:41:47;;;;;;;61.40;42.80;;;;;;;2.10;85.25;96202.80;108086;1271;59799;-66
2021/12/06 05:44:18;;;;;;;50.70;33.30;;;;;;;2.14;85.02;96204.83;108102;1272;59726;-67
2021/12/06 05:46:48;;;;;;;52.80;36.30;;;;;;;2.18;83.47;96207.46;108019;1272;71627;-67
2021/12/06 05:49:18;;;;;;;57.90;39.30;;;;;;;2.18;83.13;96206.14;108086;1272;68634;-67
2021/12/06 05:51:48;;;;;;;46.10;32.20;;;;;;;2.16;83.32;96207.27;108079;1272;69488;-66
2021/12/06 05:54:17;;;;;;;48.30;39.10;;;;;;;2.17;83.31;96215.09;108091;1272;59732;-68
2021/12/06 05:56:47;;;;;;;82.40;56.20;;;;;;;2.18;83.93;96215.24;108098;1272;59678;-67
2021/12/06 05:59:16;;;;;;;80.90;54.00;;;;;;;2.18;84.15;96218.83;108103;1272;72283;-66
2021/12/06 06:01:49;;;;;;;75.30;51.80;;;;;;;2.20;84.56;96221.27;108102;1272;68641;-67
2021/12/06 06:04:18;;;;;;;70.00;50.70;;;;;;;2.21;84.67;96220.54;108111;1272;68699;-66
2021/12/06 06:06:49;;;;;;;62.50;45.50;;;;;;;2.21;84.89;96216.89;108083;1272;59792;-66
2021/12/06 06:09:19;;;;;;;64.50;43.30;;;;;;;2.20;84.92;96218.18;108024;1272;59742;-66
2021/12/06 06:11:48;;;;;;;60.60;44.60;;;;;;;2.22;84.94;96223.75;107955;1272;71336;-70
2021/12/06 06:14:17;;;;;;;44.70;30.60;;;;;;;2.26;84.31;96223.86;108107;1272;68630;-66
2021/12/06 06:16:50;;;;;;;40.10;29.30;;;;;;;2.30;83.16;96229.45;108041;1272;68696;-66
2021/12/06 06:19:24;;;;;;;44.60;32.30;;;;;;;2.31;82.94;96231.27;107892;1274;59737;-67
2021/12/06 06:21:54;;;;;;;47.70;34.80;;;;;;;2.30;83.35;96230.83;108109;1271;59769;-66
2021/12/06 06:24:23;;;;;;;46.10;35.40;;;;;;;2.31;84.11;96231.10;108066;1272;71612;-67
2021/12/06 06:26:52;;;;;;;55.30;39.20;;;;;;;2.34;84.54;96232.88;108091;1272;67829;-67
2021/12/06 06:29:21;;;;;;;66.70;47.10;;;;;;;2.34;84.66;96238.00;108110;1272;69477;-65
2021/12/06 06:31:50;;;;;;;39.70;29.70;;;;;;;2.34;85.38;96243.86;108092;1272;59733;-68
2021/12/06 06:34:19;;;;;;;69.00;45.70;;;;;;;2.32;85.43;96249.50;108039;1271;59784;-67
2021/12/06 06:36:48;;;;;;;66.10;45.90;;;;;;;2.29;85.69;96250.17;108089;1272;71452;-67
2021/12/06 06:39:19;;;;;;;71.50;47.10;;;;;;;2.24;85.72;96255.98;108013;1272;68650;-66
2021/12/06 06:41:51;;;;;;;64.00;41.00;;;;;;;2.17;85.77;96259.45;108138;1272;70014;-66
2021/12/06 06:44:20;;;;;;;;;;;;;;;2.13;86.00;96260.72;108137;1272;59758;-67
2021/12/06 06:46:50;;;;;;;71.70;49.40;;;;;;;2.05;86.84;96262.88;108002;1271;59783;-67
2021/12/06 06:49:20;;;;;;;91.30;57.10;;;;;;;2.01;86.75;96264.10;108161;1272;71658;-67
2021/12/06 06:51:49;;;;;;;90.60;58.00;;;;;;;1.92;87.46;96272.02;108131;1272;67845;-66
2021/12/06 06:54:17;;;;;;;92.80;62.40;;;;;;;1.86;87.89;96275.50;108054;1272;69454;-69
2021/12/06 06:56:46;;;;;;;81.00;52.20;;;;;;;1.84;88.18;96278.32;108047;1271;59700;-67
2021/12/06 06:59:16;;;;;;;91.30;61.20;;;;;;;1.86;88.27;96275.81;108216;1270;59703;-71
2021/12/06 07:01:48;;;;;;;87.40;56.70;;;;;;;1.87;88.21;96275.59;108287;1269;71543;-66
2021/12/06 07:04:17;;;;;;;88.40;56.20;;;;;;;1.87;88.28;96274.05;107968;1272;68653;-67
2021/12/06 07:06:46;;;;;;;63.40;39.40;;;;;;;1.92;88.39;96276.02;107979;1271;69465;-68
2021/12/06 07:09:15;;;;;;;48.00;31.80;;;;;;;2.00;87.53;96273.66;108109;1271;59675;-67
2021/12/06 07:11:46;;;;;;;51.20;37.60;;;;;;;2.10;86.89;96266.89;108091;1272;59780;-67
2021/12/06 07:14:15;;;;;;;;;;;;;;;2.19;87.00;96266.88;108097;1272;70800;-69
2021/12/06 07:16:46;;;;;;;41.60;31.10;;;;;;;2.30;86.78;96262.31;108102;1272;68435;-67
2021/12/06 07:19:16;;;;;;;49.70;35.00;;;;;;;2.40;86.05;96263.77;108026;1272;68671;-66
2021/12/06 07:21:58;;;;;;;62.70;43.30;;;;;;;2.50;86.12;96266.65;108074;1272;59789;-65
2021/12/06 07:24:27;;;;;;;70.90;47.60;;;;;;;2.57;86.62;96263.34;108151;1272;59732;-67
2021/12/06 07:26:57;;;;;;;75.90;50.10;;;;;;;2.61;86.71;96255.18;108142;1271;71535;-70
2021/12/06 07:29:26;;;;;;;81.00;51.00;;;;;;;2.63;86.87;96245.27;107952;1273;68823;-70
2021/12/06 07:31:55;;;;;;;52.60;33.80;;;;;;;2.64;87.37;96242.76;108079;1272;69431;-67
2021/12/06 07:34:24;;;;;;;45.50;33.60;;;;;;;2.71;86.52;96241.33;108111;1272;59793;-66
2021/12/06 07:36:53;;;;;;;46.20;31.30;;;;;;;2.79;86.60;96245.29;108137;1272;59731;-66
2021/12/06 07:39:22;;;;;;;38.00;27.50;;;;;;;2.88;85.90;96252.15;108018;1271;71521;-67
2021/12/06 07:41:51;;;;;;;32.70;22.10;;;;;;;2.96;85.85;96252.34;108070;1271;69332;-68
2021/12/06 07:44:20;;;;;;;32.90;24.50;;;;;;;3.06;85.20;96257.27;108214;1272;69485;-71
2021/12/06 07:46:52;;;;;;;;;;;;;;;3.14;84.71;96251.27;108088;1272;59704;-67
2021/12/06 07:49:22;;;;;;;64.00;44.40;;;;;;;3.19;85.55;96254.23;108166;1272;59855;-70
2021/12/06 07:51:51;;;;;;;39.40;28.80;;;;;;;3.25;85.79;96258.64;108052;1272;71000;-67
2021/12/06 07:54:20;;;;;;;39.30;27.50;;;;;;;3.33;84.82;96252.14;108040;1274;67901;-67
2021/12/06 07:56:49;;;;;;;55.00;36.90;;;;;;;3.40;84.08;96256.35;108102;1272;69677;-67
2021/12/06 07:59:19;;;;;;;69.10;50.20;;;;;;;3.45;83.88;96258.49;108021;1271;59773;-66
2021/12/06 08:01:49;;;;;;;59.90;43.60;;;;;;;3.43;84.44;96262.20;108156;1271;59708;-66
2021/12/06 08:04:18;;;;;;;52.80;37.90;;;;;;;3.46;84.39;96263.08;108107;1272;71608;-66
2021/12/06 08:06:48;;;;;;;25.50;19.90;;;;;;;3.53;84.23;96265.17;108153;1272;68676;-65
2021/12/06 08:09:17;;;;;;;41.30;30.00;;;;;;;3.60;84.16;96261.67;108076;1269;69405;-69
2021/12/06 08:11:49;;;;;;;39.10;28.60;;;;;;;3.65;84.56;96268.05;108133;1271;59691;-67
2021/12/06 08:14:19;;;;;;;31.50;21.90;;;;;;;3.74;84.30;96271.49;108129;1271;59789;-66
2021/12/06 08:16:48;;;;;;;33.60;26.50;;;;;;;3.83;84.11;96264.67;108118;1272;71664;-67
2021/12/06 08:19:18;;;;;;;43.20;32.20;;;;;;;3.91;84.21;96263.48;108045;1271;67082;-66
2021/12/06 08:21:47;;;;;;;33.50;23.60;;;;;;;3.99;83.95;96262.58;108101;1271;69487;-72
2021/12/06 08:24:16;;;;;;;45.60;34.10;;;;;;;4.08;83.62;96253.23;108055;1272;60010;-68
2021/12/06 08:26:47;;;;;;;44.30;30.20;;;;;;;4.19;83.59;96245.63;108002;1272;59721;-68
2021/12/06 08:29:17;;;;;;;49.30;35.60;;;;;;;4.32;83.69;96242.16;108029;1272;72268;-67
2021/12/06 08:31:46;;;;;;;35.10;27.10;;;;;;;4.46;84.92;96246.77;108149;1272;67842;-67
2021/12/06 08:34:15;;;;;;;25.70;19.60;;;;;;;4.60;83.61;96251.66;107943;1272;68475;-67
2021/12/06 08:36:44;;;;;;;25.80;18.80;;;;;;;4.67;82.13;96255.33;108032;1272;59694;-66
2021/12/06 08:39:13;;;;;;;25.80;18.50;;;;;;;4.70;81.72;96250.16;108127;1272;59789;-67
2021/12/06 08:41:42;;;;;;;25.90;18.70;;;;;;;4.73;81.66;96252.73;107585;1272;564011;-70
2021/12/06 08:44:11;;;;;;;28.50;22.20;;;;;;;4.75;81.41;96253.78;108098;1272;67839;-67
2021/12/06 08:46:40;;;;;;;39.80;27.40;;;;;;;4.74;81.00;96256.23;108079;1272;67718;-67
2021/12/06 08:49:11;;;;;;;41.30;30.30;;;;;;;4.69;80.79;96261.27;107983;1272;59700;-68
2021/12/06 08:51:44;;;;;;;23.70;18.10;;;;;;;4.62;81.32;96261.41;108203;1272;59732;-66
2021/12/06 08:54:22;;;;;;;25.20;18.90;;;;;;;4.65;81.32;96259.84;108144;1272;70796;-66
2021/12/06 08:56:51;;;;;;;70.30;40.20;;;;;;;4.68;81.63;96257.55;108094;1272;69107;-67
2021/12/06 08:59:20;;;;;;;55.10;36.90;;;;;;;4.68;81.32;96257.02;108024;1271;69449;-68
2021/12/06 09:01:50;;;;;;;74.20;45.60;;;;;;;4.68;81.67;96255.30;107987;1271;59722;-67
2021/12/06 09:04:40;;;;;;;62.50;36.20;;;;;;;4.64;81.35;96256.92;108122;1272;59837;-66
2021/12/06 09:07:13;;;;;;;38.70;28.10;;;;;;;4.66;81.93;96258.70;108044;1272;71388;-68
2021/12/06 09:09:47;;;;;;;32.30;24.50;;;;;;;4.65;81.64;96256.50;108109;1272;68563;-67
2021/12/06 09:12:22;;;;;;;28.90;18.90;;;;;;;4.67;81.53;96254.14;108108;1272;67646;-66
2021/12/06 09:14:54;;;;;;;34.30;23.70;;;;;;;4.76;81.48;96251.29;108136;1271;59790;-67
2021/12/06 09:17:23;;;;;;;31.10;22.50;;;;;;;4.84;81.15;96246.40;107834;1275;59696;-67
2021/12/06 09:19:52;;;;;;;36.30;26.90;;;;;;;4.95;81.80;96243.59;108077;1272;70989;-67
2021/12/06 09:22:22;;;;;;;28.40;21.50;;;;;;;5.02;82.23;96251.38;107985;1274;66911;-67
2021/12/06 09:24:51;;;;;;;30.80;22.70;;;;;;;5.12;81.71;96252.25;108039;1272;68602;-67
2021/12/06 09:27:20;;;;;;;33.90;26.50;;;;;;;5.18;81.23;96252.38;108100;1272;59718;-68
2021/12/06 09:29:50;;;;;;;24.60;16.60;;;;;;;5.26;81.19;96245.58;108066;1271;59790;-67
2021/12/06 09:32:19;;;;;;;27.10;20.60;;;;;;;5.36;80.88;96244.71;108144;1272;70560;-67
2021/12/06 09:34:49;;;;;;;24.80;18.60;;;;;;;5.46;80.77;96244.16;108071;1271;67924;-67
2021/12/06 09:37:19;;;;;;;42.90;30.60;;;;;;;5.55;80.89;96241.60;108131;1272;68634;-67
2021/12/06 09:39:48;;;;;;;39.50;26.80;;;;;;;5.65;80.73;96237.51;108102;1271;59719;-67
2021/12/06 09:42:19;;;;;;;34.30;23.30;;;;;;;5.72;79.99;96231.13;108071;1272;59760;-67
2021/12/06 09:44:48;;;;;;;;;;;;;;;5.75;79.80;96229.03;108111;1272;72195;-66
2021/12/06 09:47:17;;;;;;;38.10;28.00;;;;;;;5.76;80.02;96226.13;108000;1272;68633;-67
2021/12/06 09:49:46;;;;;;;38.80;29.20;;;;;;;5.77;79.93;96222.58;108120;1272;69514;-67
2021/12/06 09:52:15;;;;;;;41.90;27.70;;;;;;;5.76;80.07;96222.51;108072;1272;59843;-69
2021/12/06 09:54:45;;;;;;;39.60;28.50;;;;;;;5.73;80.63;96221.02;108105;1272;59744;-67
2021/12/06 09:57:14;;;;;;;59.70;40.20;;;;;;;5.72;80.27;96222.59;108105;1272;72073;-67
2021/12/06 09:59:44;;;;;;;30.50;22.80;;;;;;;5.69;80.57;96221.98;108117;1272;67957;-67
2021/12/06 10:02:20;;;;;;;31.40;23.40;;;;;;;5.67;80.36;96220.95;108065;1272;68661;-68
2021/12/06 10:04:55;;;;;;;34.20;24.50;;;;;;;5.66;80.08;96220.29;108090;1271;59803;-67
2021/12/06 10:07:25;;;;;;;30.00;22.20;;;;;;;5.65;80.39;96225.35;107990;1272;59735;-67
2021/12/06 10:09:54;;;;;;;;;;;;;;;5.68;80.37;96221.54;108094;1272;70570;-67
2021/12/06 10:12:24;;;;;;;33.20;24.60;;;;;;;5.70;80.72;96226.08;108119;1272;68610;-68
2021/12/06 10:14:55;;;;;;;32.70;23.10;;;;;;;5.75;80.24;96222.42;108102;1272;69158;-67
2021/12/06 10:17:25;;;;;;;22.30;18.20;;;;;;;5.81;80.23;96219.35;108089;1271;59779;-68
2021/12/06 10:19:53;;;;;;;28.00;21.10;;;;;;;5.90;79.90;96222.72;108134;1272;59658;-68
2021/12/06 10:22:28;;;;;;;34.30;26.50;;;;;;;5.96;79.89;96224.02;108092;1271;70802;-67
2021/12/06 10:24:59;;;;;;;24.30;19.70;;;;;;;5.99;80.70;96226.40;108139;1271;68549;-70
2021/12/06 10:27:57;;;;;;;24.70;18.40;;;;;;;6.07;79.87;96217.67;108049;1272;68572;-68
2021/12/06 10:30:26;;;;;;;21.80;17.10;;;;;;;6.12;80.41;96220.95;108028;1272;59759;-69
2021/12/06 10:33:09;;;;;;;20.80;14.10;;;;;;;6.18;80.40;96223.98;108108;1272;59710;-68
2021/12/06 10:35:41;;;;;;;23.40;16.50;;;;;;;6.30;79.58;96220.84;108160;1272;71518;-68
2021/12/06 10:38:11;;;;;;;28.30;21.40;;;;;;;6.32;79.38;96223.98;108074;1272;68667;-69
2021/12/06 10:40:41;;;;;;;25.20;19.00;;;;;;;6.36;80.07;96221.03;108028;1272;68908;-69
2021/12/06 10:43:12;;;;;;;27.90;21.90;;;;;;;6.46;80.05;96222.57;108102;1272;59802;-67
2021/12/06 10:45:47;;;;;;;30.40;23.40;;;;;;;6.57;79.88;96219.83;108107;1272;59693;-67
2021/12/06 10:48:25;;;;;;;25.60;18.90;;;;;;;6.65;80.12;96217.51;108078;1272;71691;-67
2021/12/06 10:50:54;;;;;;;21.40;15.80;;;;;;;6.71;79.39;96212.36;108088;1272;68594;-68
2021/12/06 10:53:37;;;;;;;37.70;27.20;;;;;;;6.73;79.12;96214.11;108113;1272;69273;-68
2021/12/06 10:56:16;;;;;;;33.10;25.90;;;;;;;6.72;79.17;96209.48;108059;1272;59726;-67
2021/12/06 10:58:48;;;;;;;33.90;25.90;;;;;;;6.74;79.46;96206.43;108078;1272;59696;-68
2021/12/06 11:01:23;;;;;;;31.50;23.50;;;;;;;6.77;79.40;96201.04;108172;1272;71595;-68
2021/12/06 11:03:55;;;;;;;31.10;23.60;;;;;;;6.82;79.17;96195.23;108135;1272;68025;-66
2021/12/06 11:06:31;;;;;;;20.60;15.60;;;;;;;6.90;79.09;96191.33;108086;1271;69416;-67
2021/12/06 11:09:04;;;;;;;25.10;20.50;;;;;;;7.00;78.74;96187.10;108004;1272;59748;-68
2021/12/06 11:11:45;;;;;;;24.60;15.70;;;;;;;7.06;78.24;96191.61;108117;1272;59646;-66
2021/12/06 11:14:21;;;;;;;20.10;14.70;;;;;;;7.10;78.16;96194.90;107961;1274;69865;-67
2021/12/06 11:16:56;;;;;;;23.60;17.10;;;;;;;7.14;78.14;96195.98;108085;1272;67897;-66
2021/12/06 11:19:28;;;;;;;24.60;18.70;;;;;;;7.17;77.93;96195.52;108093;1272;67578;-66
2021/12/06 11:22:03;;;;;;;31.10;22.40;;;;;;;7.18;77.69;96199.23;108099;1271;59809;-67
2021/12/06 11:24:43;;;;;;;21.80;16.80;;;;;;;7.19;77.87;96194.45;108123;1272;59802;-67
2021/12/06 11:27:22;;;;;;;29.90;23.60;;;;;;;7.25;77.47;96187.05;108181;1272;70872;-66
2021/12/06 11:30:04;;;;;;;31.30;23.70;;;;;;;7.28;77.53;96181.61;108039;1272;67443;-67
2021/12/06 11:32:43;;;;;;;20.30;14.90;;;;;;;7.28;77.36;96180.05;108061;1271;69676;-66
2021/12/06 11:35:14;;;;;;;24.60;18.00;;;;;;;7.25;77.29;96167.09;108020;1272;59783;-67
2021/12/06 11:37:53;;;;;;;29.10;20.80;;;;;;;7.24;77.96;96162.19;108100;1272;59732;-70
2021/12/06 11:40:38;;;;;;;19.60;14.30;;;;;;;7.23;78.58;96165.05;107970;1272;70774;-67
2021/12/06 11:43:12;;;;;;;30.90;23.60;;;;;;;7.26;78.62;96164.83;107919;1274;67753;-68
2021/12/06 11:45:51;;;;;;;29.90;24.10;;;;;;;7.27;79.40;96160.59;108091;1272;69596;-66
2021/12/06 11:48:27;;;;;;;26.60;19.30;;;;;;;7.27;79.38;96161.09;108130;1271;59713;-67
2021/12/06 11:51:08;;;;;;;26.20;20.00;;;;;;;7.31;78.74;96164.23;108120;1272;59790;-67
2021/12/06 11:53:49;;;;;;;21.70;15.70;;;;;;;7.36;78.29;96165.20;108015;1271;71686;-67
2021/12/06 11:56:20;;;;;;;29.90;21.70;;;;;;;7.39;77.82;96165.30;108085;1275;67838;-67